You are not logged in, Click here to log in
鹽湖城國際機場SLC / KSLC 美國猶他州鹽湖城以西大約6.4公里的機場
ICAO: KSLC Country: 美國猶他州鹽湖城以西大約6.4公里的機場
Latitude: 40.7884 Longitude: -111.978
Total Arrivals: 6 Total Departures: 5
Latest Arrival: FS29 (KMSP-KSLC)ALAN. LIU Latest Departure: DL1957 (KSLC-KSEA)ALAN. LIU
Scenery: http://forums.x-plane.org/index.php?/files/file/11854-kslc-salt-lake-city-international-airport/
METAR : KSLC 190454Z 35005KT 10SM FEW130 FEW200 M02/M07 A3020 RMK AO2 SLP242 T10171072

鹽湖城國際機場SLC

You are accessing this site from IP address 35.175.113.29. Virtual Airline. CMS by phpVMS.Website designed by Zumeweb and edited by Theo Bearman.
There is 0 User(s) Online: | and 1 Guest(s) Online.
All information on this site is for fight simulation purposes only. This site is for flight logging for pilots of Virtual Airline&模擬飛行論壇 FlySim only.